createdAt,value
2022-10-19T00:03:02.013Z,1027.25
2022-10-19T00:32:07.569Z,1027.14
2022-10-19T01:01:10.041Z,1027.22
2022-10-19T01:30:00.488Z,1027.2
2022-10-19T01:59:02.662Z,1027.07
2022-10-19T02:28:04.233Z,1026.97
2022-10-19T02:57:10.375Z,1026.76
2022-10-19T03:26:12.887Z,1026.55
2022-10-19T03:54:46.793Z,1026.44
2022-10-19T04:23:43.695Z,1026.47
2022-10-19T04:52:46.640Z,1026.45
2022-10-19T05:21:45.783Z,1026.31
2022-10-19T05:50:34.497Z,1026.18
2022-10-19T06:19:35.544Z,1026.3
2022-10-19T06:48:23.749Z,1026.41
2022-10-19T07:16:58.648Z,1026.41
2022-10-19T07:45:44.644Z,1026.37
2022-10-19T08:14:33.266Z,1026.34
2022-10-19T08:43:33.166Z,1026.32
2022-10-19T09:12:38.611Z,1026.13
2022-10-19T09:41:40.800Z,1026.04
2022-10-19T10:10:36.776Z,1025.87
2022-10-19T10:39:25.243Z,1025.8
2022-10-19T11:08:08.436Z,1025.47
2022-10-19T11:37:15.461Z,1025
2022-10-19T12:06:18.513Z,1024.36
2022-10-19T12:35:22.266Z,1023.69
2022-10-19T13:04:29.577Z,1023.41
2022-10-19T13:33:21.873Z,1022.91
2022-10-19T14:02:26.917Z,1022.58
2022-10-19T14:31:27.524Z,1022.48
2022-10-19T15:00:32.127Z,1022.15
2022-10-19T15:29:32.960Z,1022.07
2022-10-19T15:58:33.171Z,1021.91
2022-10-19T16:27:31.337Z,1021.8
2022-10-19T16:56:27.731Z,1021.88
2022-10-19T17:25:29.028Z,1021.82
2022-10-19T17:54:30.700Z,1022.07
2022-10-19T18:23:10.470Z,1022.15
2022-10-19T18:52:09.771Z,1021.8
2022-10-19T19:21:12.756Z,1021.79
2022-10-19T19:50:06.625Z,1021.83
2022-10-19T20:18:50.165Z,1021.88
2022-10-19T20:47:36.235Z,1021.78
2022-10-19T21:16:40.696Z,1021.35
2022-10-19T21:45:42.737Z,1021.27
2022-10-19T22:14:45.856Z,1021.06
2022-10-19T22:43:50.490Z,1020.69
2022-10-19T23:12:47.781Z,1020.7
2022-10-19T23:41:48.558Z,1020.61
